Time;durP1;ratioP1;P1;durP2;ratioP2;P2;SDS_P1;SDS_P2;PMS_P1;PMS_P2;Temp;Humidity;BMP_temperature;BMP_pressure;BME280_temperature;BME280_humidity;BME280_pressure;Samples;Min_cycle;Max_cycle;Signal;HPM_P1;HPM_P2
2022/03/12 00:00:07;;;;;;;8.20;5.82;;;8.80;69.60;;;;;;5074177;28;20554;-48
2022/03/12 00:02:34;;;;;;;10.75;6.00;;;8.80;69.60;;;;;;5074616;28;20165;-49
2022/03/12 00:05:01;;;;;;;9.77;6.97;;;8.80;69.80;;;;;;5073768;28;20162;-48
2022/03/12 00:07:27;;;;;;;19.50;11.50;;;8.80;69.30;;;;;;5074325;28;20170;-48
2022/03/12 00:09:54;;;;;;;28.00;17.17;;;8.80;68.90;;;;;;5074130;28;20177;-48
2022/03/12 00:12:21;;;;;;;6.25;4.55;;;8.80;68.90;;;;;;5074152;28;20502;-48
2022/03/12 00:14:48;;;;;;;11.98;6.45;;;8.90;68.30;;;;;;5073979;28;20252;-49
2022/03/12 00:17:15;;;;;;;8.20;5.40;;;8.90;68.50;;;;;;5073804;28;20154;-48
2022/03/12 00:19:41;;;;;;;15.55;7.10;;;8.90;68.90;;;;;;5073743;28;20176;-48
2022/03/12 00:22:07;;;;;;;11.13;7.65;;;8.90;68.70;;;;;;5073701;28;20166;-48
2022/03/12 00:24:34;;;;;;;10.98;6.82;;;8.90;69.50;;;;;;5074160;28;20174;-48
2022/03/12 00:27:01;;;;;;;6.97;4.63;;;8.90;68.90;;;;;;5073486;28;20188;-48
2022/03/12 00:29:27;;;;;;;9.43;6.57;;;8.90;69.90;;;;;;5073481;28;20188;-48
2022/03/12 00:31:54;;;;;;;9.82;7.07;;;8.90;69.30;;;;;;5073683;28;20249;-48
2022/03/12 00:34:20;;;;;;;9.05;5.32;;;8.90;69.00;;;;;;5073089;28;20193;-48
2022/03/12 00:36:46;;;;;;;6.90;4.82;;;8.80;69.10;;;;;;5073569;28;20579;-49
2022/03/12 00:39:14;;;;;;;8.73;5.15;;;8.90;69.50;;;;;;5073371;28;20173;-48
2022/03/12 00:41:42;;;;;;;6.80;5.32;;;8.90;69.50;;;;;;5073229;28;20631;-48
2022/03/12 00:44:10;;;;;;;7.13;5.00;;;8.90;69.40;;;;;;5073471;28;20177;-48
2022/03/12 00:46:37;;;;;;;6.70;4.68;;;8.90;69.50;;;;;;5073257;28;20717;-48
2022/03/12 00:49:03;;;;;;;6.63;4.78;;;8.90;69.50;;;;;;5073402;28;20265;-48
2022/03/12 00:51:28;;;;;;;9.52;5.25;;;8.90;69.80;;;;;;5073141;28;20216;-49
2022/03/12 00:53:54;;;;;;;10.38;5.15;;;8.90;70.00;;;;;;5072909;28;20165;-49
2022/03/12 00:56:19;;;;;;;7.78;5.13;;;8.90;69.80;;;;;;5072942;28;20170;-48
2022/03/12 00:58:47;;;;;;;8.73;5.25;;;8.90;69.60;;;;;;5073038;28;20170;-48
2022/03/12 01:01:13;;;;;;;9.57;5.28;;;8.90;69.90;;;;;;5072762;28;20655;-48
2022/03/12 01:03:38;;;;;;;8.68;5.15;;;8.90;69.50;;;;;;5072572;28;20177;-48
2022/03/12 01:06:06;;;;;;;9.52;5.50;;;8.90;69.90;;;;;;5073254;28;20170;-48
2022/03/12 01:08:33;;;;;;;8.48;5.00;;;8.90;70.30;;;;;;5072685;28;20655;-48
2022/03/12 01:11:01;;;;;;;9.25;5.95;;;8.90;69.80;;;;;;5072644;28;20208;-49
2022/03/12 01:13:27;;;;;;;9.40;5.40;;;8.90;69.10;;;;;;5071837;28;20166;-48
2022/03/12 01:15:53;;;;;;;7.28;5.30;;;8.90;69.50;;;;;;5072909;28;20303;-48
2022/03/12 01:18:21;;;;;;;7.15;4.68;;;8.90;69.40;;;;;;5072741;28;20253;-48
2022/03/12 01:20:47;;;;;;;7.85;4.95;;;8.90;68.70;;;;;;5072748;28;20170;-48
2022/03/12 01:23:17;;;;;;;8.05;5.80;;;8.90;69.60;;;;;;5072672;28;20661;-48
2022/03/12 01:25:44;;;;;;;7.47;5.05;;;8.90;69.00;;;;;;5072922;28;20227;-48
2022/03/12 01:28:11;;;;;;;6.70;5.45;;;8.90;68.10;;;;;;5072711;28;20181;-48
2022/03/12 01:30:37;;;;;;;9.52;5.03;;;8.90;67.70;;;;;;5073047;28;20170;-48
2022/03/12 01:33:03;;;;;;;9.98;5.47;;;8.90;68.60;;;;;;5072802;28;20170;-48
2022/03/12 01:35:28;;;;;;;10.88;5.05;;;9.00;67.70;;;;;;5072668;28;20214;-48
2022/03/12 01:37:54;;;;;;;9.98;5.43;;;9.00;67.70;;;;;;5072620;28;20631;-48
2022/03/12 01:40:20;;;;;;;10.80;5.18;;;9.00;67.50;;;;;;5072453;28;20639;-47
2022/03/12 01:42:46;;;;;;;10.35;5.22;;;9.00;67.10;;;;;;5072233;28;20228;-48
2022/03/12 01:45:13;;;;;;;8.82;5.13;;;9.00;67.40;;;;;;5072603;28;20167;-48
2022/03/12 01:47:40;;;;;;;10.27;5.25;;;9.00;67.30;;;;;;5071345;28;20267;-48
2022/03/12 01:50:06;;;;;;;7.72;5.03;;;9.00;67.50;;;;;;5071972;28;20212;-48
2022/03/12 01:52:32;;;;;;;8.68;5.22;;;9.00;67.40;;;;;;5071784;28;20170;-48
2022/03/12 01:54:58;;;;;;;7.97;5.47;;;9.00;67.10;;;;;;5071319;28;20255;-48
2022/03/12 01:57:23;;;;;;;7.53;5.55;;;9.00;67.30;;;;;;5071344;28;20161;-49
2022/03/12 01:59:50;;;;;;;6.78;4.80;;;9.00;67.30;;;;;;5071338;28;20518;-49
2022/03/12 02:02:16;;;;;;;10.95;5.03;;;9.00;66.80;;;;;;5071583;28;20170;-48
2022/03/12 02:04:51;;;;;;;10.82;5.82;;;9.00;67.20;;;;;;5071294;28;20162;-48
2022/03/12 02:07:17;;;;;;;9.45;5.65;;;9.00;67.10;;;;;;5071497;28;20172;-48
2022/03/12 02:09:42;;;;;;;9.32;5.28;;;9.00;67.00;;;;;;5071427;28;20174;-48
2022/03/12 02:12:08;;;;;;;9.18;5.43;;;9.00;67.20;;;;;;5071202;28;20173;-49
2022/03/12 02:14:36;;;;;;;10.63;6.07;;;9.00;67.50;;;;;;5071456;28;20276;-48
2022/03/12 02:17:07;;;;;;;7.95;5.57;;;9.00;68.20;;;;;;5071104;28;20158;-49
2022/03/12 02:19:33;;;;;;;8.75;5.18;;;9.00;67.60;;;;;;5053587;28;20199;-48
2022/03/12 02:22:07;;;;;;;10.02;5.32;;;9.00;67.80;;;;;;5070980;28;20631;-49
2022/03/12 02:24:35;;;;;;;7.18;5.32;;;9.00;68.80;;;;;;5070071;28;20181;-49
2022/03/12 02:27:04;;;;;;;7.30;5.07;;;9.00;67.70;;;;;;5071044;28;20173;-48
2022/03/12 02:29:30;;;;;;;8.52;4.97;;;9.00;68.00;;;;;;5070878;28;20647;-49
2022/03/12 02:31:59;;;;;;;7.60;5.38;;;9.00;67.80;;;;;;5070973;28;20178;-49
2022/03/12 02:34:31;;;;;;;8.88;5.68;;;8.90;67.60;;;;;;5071194;28;20201;-49
2022/03/12 02:36:57;;;;;;;7.75;5.57;;;9.00;68.00;;;;;;5070952;28;20639;-48
2022/03/12 02:39:27;;;;;;;9.15;5.50;;;8.90;67.60;;;;;;5070766;28;20182;-48
2022/03/12 02:41:54;;;;;;;6.28;4.97;;;8.90;67.60;;;;;;5071021;28;20253;-48
2022/03/12 02:44:22;;;;;;;9.05;5.57;;;8.90;67.70;;;;;;5052794;28;20576;-49
2022/03/12 02:47:08;;;;;;;7.27;4.80;;;8.90;68.10;;;;;;5035264;28;1028400;-48
2022/03/12 02:49:37;;;;;;;7.55;5.57;;;8.90;68.50;;;;;;5072136;28;20459;-49
2022/03/12 02:52:04;;;;;;;9.25;5.30;;;8.90;71.00;;;;;;5072140;28;20181;-48
2022/03/12 02:54:30;;;;;;;8.63;5.75;;;8.80;72.30;;;;;;5071392;28;20208;-48
2022/03/12 02:56:56;;;;;;;11.57;5.65;;;8.80;74.40;;;;;;5071714;28;20166;-48
2022/03/12 02:59:21;;;;;;;7.90;5.78;;;8.80;75.90;;;;;;5071792;28;20631;-48
2022/03/12 03:01:48;;;;;;;9.80;5.97;;;8.80;76.40;;;;;;5071475;28;20166;-49
2022/03/12 03:04:13;;;;;;;11.65;5.20;;;8.70;75.40;;;;;;5071940;28;20185;-48
2022/03/12 03:06:39;;;;;;;8.88;5.85;;;8.70;75.10;;;;;;5071433;28;20627;-48
2022/03/12 03:09:04;;;;;;;8.40;5.90;;;8.70;75.00;;;;;;5071717;28;20174;-48
2022/03/12 03:11:34;;;;;;;10.02;5.68;;;8.70;74.60;;;;;;5071700;28;20267;-48
2022/03/12 03:14:00;;;;;;;10.50;5.93;;;8.60;74.90;;;;;;5054359;28;20181;-48
2022/03/12 03:16:31;;;;;;;10.23;6.22;;;8.60;74.70;;;;;;5071405;28;20174;-48
2022/03/12 03:18:57;;;;;;;7.93;6.15;;;8.60;74.80;;;;;;5071500;28;20198;-48
2022/03/12 03:21:25;;;;;;;8.18;6.30;;;8.60;74.40;;;;;;5071257;28;20174;-48
2022/03/12 03:23:53;;;;;;;8.93;6.75;;;8.60;74.10;;;;;;5071304;28;20174;-48
2022/03/12 03:26:38;;;;;;;12.07;6.60;;;8.60;73.60;;;;;;5071267;28;20162;-48
2022/03/12 03:29:04;;;;;;;9.45;7.25;;;8.60;74.40;;;;;;5071476;28;20165;-48
2022/03/12 03:31:29;;;;;;;11.32;7.50;;;8.60;73.50;;;;;;5071314;28;20182;-48
2022/03/12 03:33:55;;;;;;;12.00;6.65;;;8.60;73.20;;;;;;5071124;28;20258;-48
2022/03/12 03:36:21;;;;;;;13.95;7.38;;;8.60;72.70;;;;;;5073804;28;20177;-48
2022/03/12 03:38:46;;;;;;;9.38;6.80;;;8.60;72.80;;;;;;5074685;28;20249;-49
2022/03/12 03:41:12;;;;;;;11.32;7.28;;;8.60;72.60;;;;;;5074754;28;20173;-48
2022/03/12 03:43:37;;;;;;;11.48;7.43;;;8.60;72.60;;;;;;5074655;28;20170;-48
2022/03/12 03:46:03;;;;;;;8.85;6.55;;;8.60;72.00;;;;;;5074691;28;20209;-48
2022/03/12 03:48:35;;;;;;;9.10;6.10;;;8.60;71.70;;;;;;5074543;28;20213;-48
2022/03/12 03:51:01;;;;;;;9.63;6.90;;;8.60;71.40;;;;;;5074758;28;20212;-48
2022/03/12 03:53:27;;;;;;;13.70;6.68;;;8.60;71.10;;;;;;5074761;28;20592;-49
2022/03/12 03:56:00;;;;;;;12.32;5.97;;;8.60;71.50;;;;;;5074646;28;20217;-48
2022/03/12 03:58:27;;;;;;;9.50;5.25;;;8.60;72.00;;;;;;5074362;28;20657;-48
2022/03/12 04:00:57;;;;;;;10.77;5.65;;;8.60;71.80;;;;;;5074389;28;20281;-49
2022/03/12 04:03:24;;;;;;;7.68;5.68;;;8.60;72.30;;;;;;5074267;28;20245;-48
2022/03/12 04:05:50;;;;;;;10.75;5.72;;;8.60;72.90;;;;;;5074464;28;20166;-48
2022/03/12 04:08:16;;;;;;;8.98;5.88;;;8.50;73.60;;;;;;5074130;28;20162;-49
2022/03/12 04:10:42;;;;;;;11.32;5.75;;;8.50;73.60;;;;;;5074393;28;20185;-48
2022/03/12 04:13:16;;;;;;;6.75;5.53;;;8.60;73.90;;;;;;5074159;28;20166;-48
2022/03/12 04:15:42;;;;;;;10.27;5.82;;;8.50;74.30;;;;;;5056002;28;20244;-48
2022/03/12 04:18:08;;;;;;;6.78;5.20;;;8.50;74.10;;;;;;5074227;28;20162;-48
2022/03/12 04:20:34;;;;;;;9.75;6.28;;;8.50;74.00;;;;;;5074262;28;20616;-48
2022/03/12 04:23:00;;;;;;;9.80;5.57;;;8.50;74.00;;;;;;5073906;28;20158;-49
2022/03/12 04:25:27;;;;;;;12.07;6.32;;;8.50;74.00;;;;;;5073886;28;20161;-48
2022/03/12 04:27:53;;;;;;;10.38;6.38;;;8.50;73.50;;;;;;5073734;28;20759;-48
2022/03/12 04:30:19;;;;;;;8.63;5.72;;;8.50;74.00;;;;;;5073704;28;20173;-48
2022/03/12 04:32:45;;;;;;;12.88;5.72;;;8.50;74.00;;;;;;5073729;28;20165;-48
2022/03/12 04:35:11;;;;;;;11.07;6.60;;;8.50;74.50;;;;;;5073574;28;20272;-48
2022/03/12 04:37:37;;;;;;;12.35;6.32;;;8.50;74.70;;;;;;5073574;28;20253;-48
2022/03/12 04:40:10;;;;;;;9.10;6.03;;;8.50;74.60;;;;;;5055938;28;20205;-49
2022/03/12 04:42:42;;;;;;;8.60;5.60;;;8.50;74.60;;;;;;5073877;28;20248;-48
2022/03/12 04:45:11;;;;;;;10.65;6.03;;;8.50;74.80;;;;;;5073466;28;20212;-48
2022/03/12 04:47:41;;;;;;;9.23;5.90;;;8.50;74.90;;;;;;5072278;28;20222;-48
2022/03/12 04:50:07;;;;;;;11.98;6.13;;;8.40;75.10;;;;;;5073226;28;20643;-48
2022/03/12 04:52:34;;;;;;;7.88;6.07;;;8.40;75.10;;;;;;5073600;28;20174;-48
2022/03/12 04:55:05;;;;;;;8.75;6.20;;;8.40;75.50;;;;;;5073427;28;20205;-48
2022/03/12 04:57:30;;;;;;;10.13;6.35;;;8.30;75.70;;;;;;5073203;28;20707;-48
2022/03/12 04:59:56;;;;;;;9.10;6.07;;;8.20;77.10;;;;;;5073201;28;20493;-48
2022/03/12 05:02:21;;;;;;;12.43;6.07;;;8.20;77.00;;;;;;5073143;28;20166;-49
2022/03/12 05:04:47;;;;;;;9.18;6.07;;;8.20;77.10;;;;;;5072988;28;20534;-48
2022/03/12 05:07:14;;;;;;;18.35;10.75;;;8.20;77.20;;;;;;5073340;28;20189;-48
2022/03/12 05:09:40;;;;;;;25.23;11.25;;;8.20;77.50;;;;;;5073180;28;20170;-48
2022/03/12 05:12:07;;;;;;;18.50;8.80;;;8.20;78.10;;;;;;5073222;28;20537;-48
2022/03/12 05:14:35;;;;;;;12.85;7.95;;;8.10;78.70;;;;;;5073046;28;20267;-48
2022/03/12 05:17:04;;;;;;;32.38;14.20;;;8.00;78.20;;;;;;5072830;28;20158;-48
2022/03/12 05:19:30;;;;;;;29.17;13.95;;;8.00;78.10;;;;;;5072778;28;20632;-48
2022/03/12 05:21:55;;;;;;;26.23;11.52;;;8.00;78.10;;;;;;5072736;28;20166;-48
2022/03/12 05:24:21;;;;;;;40.75;17.23;;;8.00;78.10;;;;;;5072700;28;20556;-49
2022/03/12 05:26:47;;;;;;;38.17;17.25;;;7.90;77.80;;;;;;5072707;28;20189;-48
2022/03/12 05:29:12;;;;;;;20.90;9.07;;;7.90;78.00;;;;;;5072657;28;20166;-48
2022/03/12 05:31:38;;;;;;;51.42;19.95;;;7.90;78.00;;;;;;5072630;28;20166;-48
2022/03/12 05:34:05;;;;;;;37.28;17.35;;;7.80;78.00;;;;;;5054848;28;20214;-48
2022/03/12 05:36:30;;;;;;;32.95;14.05;;;7.80;78.40;;;;;;5072396;28;20181;-48
2022/03/12 05:38:56;;;;;;;32.78;13.27;;;9.50;80.10;;;;;;5072420;28;20166;-48
2022/03/12 05:41:22;;;;;;;17.73;8.90;;;7.80;78.60;;;;;;5072664;28;20176;-48
2022/03/12 05:43:48;;;;;;;62.55;25.23;;;7.70;78.50;;;;;;5054350;28;20248;-48
2022/03/12 05:46:17;;;;;;;23.40;10.07;;;7.70;78.90;;;;;;5072183;28;20213;-48
2022/03/12 05:48:45;;;;;;;39.60;18.08;;;7.70;79.20;;;;;;5072566;28;20177;-48
2022/03/12 05:51:11;;;;;;;34.40;16.17;;;7.70;79.30;;;;;;5072168;28;20154;-48
2022/03/12 05:53:37;;;;;;;16.33;8.32;;;7.70;79.80;;;;;;5072386;28;20180;-48
2022/03/12 05:56:04;;;;;;;13.23;8.43;;;7.70;80.00;;;;;;5072636;28;20214;-48
2022/03/12 05:58:38;;;;;;;14.73;7.60;;;7.70;80.50;;;;;;5072185;28;20180;-49
2022/03/12 06:01:04;;;;;;;13.80;7.57;;;7.60;80.40;;;;;;5072336;28;20638;-48
2022/03/12 06:03:30;;;;;;;11.60;6.65;;;7.60;80.70;;;;;;5072186;28;20177;-48
2022/03/12 06:05:58;;;;;;;14.90;9.38;;;7.60;81.10;;;;;;5072045;28;20162;-48
2022/03/12 06:08:26;;;;;;;18.88;10.52;;;7.60;81.60;;;;;;5071875;28;20583;-48
2022/03/12 06:10:54;;;;;;;21.35;11.23;;;7.60;82.00;;;;;;5071953;28;20502;-48
2022/03/12 06:13:25;;;;;;;15.77;10.05;;;7.60;82.00;;;;;;5071910;28;20639;-48
2022/03/12 06:15:58;;;;;;;39.03;20.17;;;7.60;82.40;;;;;;5072104;28;20205;-48
2022/03/12 06:18:28;;;;;;;21.15;12.55;;;7.60;82.80;;;;;;5072146;28;20176;-48
2022/03/12 06:20:53;;;;;;;13.70;8.35;;;7.70;83.20;;;;;;5071903;28;20174;-49
2022/03/12 06:23:19;;;;;;;31.40;15.82;;;7.70;83.60;;;;;;5071897;28;20578;-49
2022/03/12 06:25:45;;;;;;;29.05;16.52;;;7.60;84.10;;;;;;5071834;28;20170;-48
2022/03/12 06:28:11;;;;;;;24.63;11.45;;;7.70;84.40;;;;;;5072022;28;20248;-48
2022/03/12 06:30:37;;;;;;;24.70;12.05;;;7.70;84.80;;;;;;5072070;28;20193;-48
2022/03/12 06:33:05;;;;;;;18.17;10.25;;;7.70;84.90;;;;;;5072269;28;20199;-48
2022/03/12 06:35:31;;;;;;;12.48;7.93;;;7.70;85.50;;;;;;5071864;28;20233;-48
2022/03/12 06:37:56;;;;;;;11.50;7.63;;;7.80;86.50;;;;;;5071621;28;20201;-49
2022/03/12 06:40:28;;;;;;;11.25;7.95;;;7.80;87.40;;;;;;5071355;28;20174;-47
2022/03/12 06:42:56;;;;;;;10.25;7.40;;;7.80;88.50;;;;;;5071331;28;20173;-48
2022/03/12 06:45:24;;;;;;;21.60;11.65;;;7.80;90.00;;;;;;5072075;28;20170;-48
2022/03/12 06:47:50;;;;;;;26.95;14.23;;;7.80;90.90;;;;;;5071312;28;20217;-48
2022/03/12 06:50:19;;;;;;;14.43;8.18;;;7.80;91.20;;;;;;5071267;28;20166;-47
2022/03/12 06:52:48;;;;;;;22.05;11.35;;;7.90;91.30;;;;;;5071291;28;20646;-47
2022/03/12 06:55:15;;;;;;;10.93;6.93;;;7.90;92.40;;;;;;5071099;28;20236;-47
2022/03/12 06:57:40;;;;;;;18.23;8.70;;;7.90;92.70;;;;;;5071338;28;20169;-47
2022/03/12 07:00:12;;;;;;;15.05;7.65;;;7.90;94.10;;;;;;5071820;28;20162;-47
2022/03/12 07:02:38;;;;;;;20.48;9.30;;;8.00;95.60;;;;;;5071368;28;20260;-47
2022/03/12 07:05:05;;;;;;;17.88;9.23;;;8.00;96.70;;;;;;5071835;28;20311;-47
2022/03/12 07:07:31;;;;;;;16.33;10.43;;;8.00;97.90;;;;;;5071552;28;20188;-47
2022/03/12 07:09:57;;;;;;;13.13;6.65;;;8.10;98.60;;;;;;5071716;28;20635;-47
2022/03/12 07:12:22;;;;;;;11.05;7.13;;;8.20;99.70;;;;;;5075202;28;20170;-47
2022/03/12 07:14:48;;;;;;;9.95;7.15;;;8.30;99.90;;;;;;5075258;28;20670;-47
2022/03/12 07:17:13;;;;;;;15.75;8.73;;;8.40;99.90;;;;;;5075143;28;20646;-47
2022/03/12 07:19:39;;;;;;;9.60;6.68;;;8.50;99.90;;;;;;5074959;28;20274;-47
2022/03/12 07:22:05;;;;;;;9.65;6.78;;;8.50;99.90;;;;;;5075101;28;20170;-47
2022/03/12 07:24:31;;;;;;;12.20;7.03;;;8.50;99.90;;;;;;5075159;28;20581;-47
2022/03/12 07:26:57;;;;;;;12.88;6.78;;;8.60;99.90;;;;;;5074970;28;20166;-47
2022/03/12 07:29:22;;;;;;;10.50;6.95;;;8.60;99.90;;;;;;5074779;28;20570;-47
2022/03/12 07:31:48;;;;;;;12.85;5.85;;;8.70;99.90;;;;;;5074842;28;20216;-47
2022/03/12 07:34:13;;;;;;;9.27;6.30;;;8.80;99.90;;;;;;5074670;28;20522;-47
2022/03/12 07:36:39;;;;;;;15.32;7.15;;;8.90;99.90;;;;;;5074966;28;20185;-47
2022/03/12 07:39:05;;;;;;;9.23;7.05;;;9.00;99.90;;;;;;5074948;28;20167;-47
2022/03/12 07:41:31;;;;;;;12.02;7.28;;;9.00;99.90;;;;;;5074904;28;20170;-46
2022/03/12 07:43:57;;;;;;;14.73;7.07;;;9.00;99.90;;;;;;5074697;28;20193;-48
2022/03/12 07:46:23;;;;;;;14.15;7.90;;;9.20;99.90;;;;;;5074289;28;20210;-47
2022/03/12 07:48:49;;;;;;;12.60;7.82;;;9.20;99.90;;;;;;5074869;28;20640;-47
2022/03/12 07:51:15;;;;;;;11.82;7.82;;;9.20;99.90;;;;;;5074583;28;20166;-47
2022/03/12 07:53:41;;;;;;;10.85;7.80;;;9.20;99.90;;;;;;5056678;28;20173;-47
2022/03/12 07:56:07;;;;;;;28.73;9.88;;;9.40;99.90;;;;;;5074492;28;20205;-46
2022/03/12 07:58:34;;;;;;;27.15;10.23;;;9.50;99.90;;;;;;5074656;28;20624;-47
2022/03/12 08:01:00;;;;;;;20.33;9.07;;;9.70;99.90;;;;;;5074326;28;20207;-47
2022/03/12 08:03:26;;;;;;;17.52;8.93;;;9.80;99.90;;;;;;5074631;28;20211;-46
2022/03/12 08:05:52;;;;;;;21.38;8.75;;;10.00;99.90;;;;;;5074230;28;20162;-47
2022/03/12 08:08:18;;;;;;;21.70;9.82;;;10.00;99.90;;;;;;5074297;28;20162;-47
2022/03/12 08:13:29;;;;;;;10.85;7.82;;;10.30;99.90;;;;;;5074513;28;20224;-47
2022/03/12 08:15:55;;;;;;;12.52;7.53;;;10.40;99.90;;;;;;5073981;28;20197;-48
2022/03/12 08:18:22;;;;;;;9.20;7.13;;;10.60;99.90;;;;;;5074390;28;20201;-48
2022/03/12 08:20:48;;;;;;;11.27;6.35;;;10.80;99.90;;;;;;5055963;28;20220;-48
2022/03/12 08:23:14;;;;;;;8.82;6.07;;;11.10;99.90;;;;;;5074142;28;20166;-48
2022/03/12 08:25:40;;;;;;;8.43;6.40;;;11.30;99.90;;;;;;5073930;28;20182;-48
2022/03/12 08:28:06;;;;;;;8.25;5.57;;;11.50;99.90;;;;;;5074198;28;20578;-48
2022/03/12 08:30:33;;;;;;;8.85;6.35;;;11.60;99.90;;;;;;5074084;28;20162;-48
2022/03/12 08:32:59;;;;;;;7.75;6.00;;;11.80;99.90;;;;;;5073879;28;20163;-48
2022/03/12 08:35:24;;;;;;;10.27;6.28;;;11.80;99.90;;;;;;5073490;28;20346;-48
2022/03/12 08:37:50;;;;;;;6.50;5.72;;;12.00;99.90;;;;;;5073835;28;20219;-48
2022/03/12 08:40:17;;;;;;;8.80;5.55;;;12.20;99.90;;;;;;5073992;28;20253;-48
2022/03/12 08:42:43;;;;;;;7.40;6.25;;;12.30;99.90;;;;;;5056012;28;20185;-51
2022/03/12 08:45:11;;;;;;;7.28;5.93;;;12.30;99.90;;;;;;5073634;28;20640;-48
2022/03/12 08:47:37;;;;;;;8.20;5.40;;;12.30;99.90;;;;;;5073442;28;20224;-48
2022/03/12 08:50:06;;;;;;;8.98;6.03;;;12.50;99.90;;;;;;5073952;28;20630;-48
2022/03/12 08:52:32;;;;;;;7.55;5.80;;;12.60;99.90;;;;;;5074027;28;20181;-48
2022/03/12 08:54:57;;;;;;;8.93;6.03;;;12.70;99.90;;;;;;5073694;28;20209;-48
2022/03/12 08:57:23;;;;;;;7.88;5.80;;;12.80;99.90;;;;;;5073425;28;20196;-48
2022/03/12 08:59:48;;;;;;;6.72;5.43;;;12.90;99.90;;;;;;5073304;28;20260;-48
2022/03/12 09:02:14;;;;;;;9.75;5.93;;;12.80;99.90;;;;;;5073383;28;20249;-48
2022/03/12 09:04:40;;;;;;;8.38;5.25;;;12.90;99.90;;;;;;5055320;28;20169;-48
2022/03/12 09:07:05;;;;;;;8.90;5.38;;;12.90;99.90;;;;;;5073417;28;20687;-48
2022/03/12 09:09:32;;;;;;;11.82;5.65;;;12.80;99.90;;;;;;5073284;28;20162;-53
2022/03/12 09:11:57;;;;;;;8.25;5.72;;;12.60;99.90;;;;;;5073253;28;20573;-48
2022/03/12 09:14:23;;;;;;;7.40;5.13;;;12.60;99.90;;;;;;5072810;28;20194;-48
2022/03/12 09:16:48;;;;;;;11.20;5.47;;;12.50;99.90;;;;;;5072971;28;20204;-48
2022/03/12 09:19:14;;;;;;;9.98;5.57;;;12.50;99.90;;;;;;5054864;28;20166;-48
2022/03/12 09:21:41;;;;;;;8.88;6.07;;;12.50;99.90;;;;;;5072791;28;20174;-48
2022/03/12 09:24:07;;;;;;;8.05;5.55;;;12.80;99.90;;;;;;5072687;28;20190;-48
2022/03/12 09:26:33;;;;;;;6.30;5.07;;;12.90;99.90;;;;;;5073239;28;20205;-48
2022/03/12 09:28:58;;;;;;;8.45;4.57;;;13.10;99.90;;;;;;5054720;28;20181;-48
2022/03/12 09:31:24;;;;;;;5.38;3.83;;;13.00;99.90;;;;;;5072553;28;20166;-47
2022/03/12 09:33:50;;;;;;;8.68;4.68;;;13.10;99.90;;;;;;5072067;28;20171;-48
2022/03/12 09:36:16;;;;;;;6.85;4.82;;;13.10;99.90;;;;;;5072409;28;20216;-48
2022/03/12 09:38:42;;;;;;;8.45;4.40;;;13.20;99.90;;;;;;5072782;28;20245;-48
2022/03/12 09:41:07;;;;;;;4.93;4.18;;;13.20;99.90;;;;;;5072432;28;20170;-48
2022/03/12 09:43:33;;;;;;;6.65;4.00;;;13.30;99.90;;;;;;5072835;28;20500;-48
2022/03/12 09:46:00;;;;;;;9.18;4.30;;;13.30;99.90;;;;;;5072432;28;20308;-47
2022/03/12 09:48:26;;;;;;;7.30;4.10;;;13.50;99.90;;;;;;5072169;28;20657;-48
2022/03/12 09:50:52;;;;;;;5.60;4.30;;;13.70;99.90;;;;;;5072592;28;20180;-48
2022/03/12 09:53:17;;;;;;;6.75;4.10;;;13.80;99.90;;;;;;5072244;28;20158;-48
2022/03/12 09:55:43;;;;;;;7.22;3.92;;;14.10;99.90;;;;;;5072224;28;20220;-48
2022/03/12 09:58:08;;;;;;;6.85;4.03;;;14.20;99.90;;;;;;5072134;28;20162;-47
2022/03/12 10:00:34;;;;;;;6.82;4.13;;;13.90;99.90;;;;;;5072695;28;20174;-48
2022/03/12 10:03:00;;;;;;;5.60;3.85;;;14.00;99.90;;;;;;5072382;28;20212;-48
2022/03/12 10:05:27;;;;;;;5.93;3.63;;;14.10;99.90;;;;;;5054224;28;20215;-48
2022/03/12 10:07:53;;;;;;;7.43;4.03;;;14.20;99.90;;;;;;5072132;28;20569;-47
2022/03/12 10:10:21;;;;;;;4.82;3.38;;;14.30;99.90;;;;;;5072073;28;20257;-48
2022/03/12 10:12:48;;;;;;;4.18;3.50;;;14.40;99.90;;;;;;5071932;28;20169;-47
2022/03/12 10:15:17;;;;;;;7.13;4.13;;;14.50;99.90;;;;;;5071958;28;20209;-48
2022/03/12 10:17:44;;;;;;;6.18;4.10;;;14.60;99.90;;;;;;5071391;28;20215;-48
2022/03/12 10:20:11;;;;;;;7.20;3.55;;;14.60;99.90;;;;;;5071977;28;20275;-48
2022/03/12 10:22:41;;;;;;;8.15;2.95;;;14.50;99.90;;;;;;5072410;28;20242;-48
2022/03/12 10:25:08;;;;;;;6.13;3.30;;;14.50;99.90;;;;;;5071883;28;20539;-48
2022/03/12 10:27:35;;;;;;;5.60;3.35;;;14.50;99.90;;;;;;5071840;28;20188;-48
2022/03/12 10:30:02;;;;;;;4.82;2.80;;;14.50;99.90;;;;;;5053482;28;20189;-48
2022/03/12 10:32:34;;;;;;;6.47;3.45;;;14.70;99.90;;;;;;5071887;28;20177;-48
2022/03/12 10:35:01;;;;;;;5.82;3.50;;;14.70;99.90;;;;;;5071576;28;20217;-48
2022/03/12 10:37:32;;;;;;;4.28;2.90;;;14.80;99.90;;;;;;5054003;28;20200;-48
2022/03/12 10:40:11;;;;;;;4.70;2.67;;;15.00;99.90;;;;;;5071927;28;20249;-48
2022/03/12 10:42:47;;;;;;;6.25;3.20;;;15.10;99.90;;;;;;5069889;28;20166;-48
2022/03/12 10:45:17;;;;;;;7.13;2.88;;;15.10;99.90;;;;;;5072346;28;20169;-48
2022/03/12 10:47:45;;;;;;;3.65;2.70;;;15.20;99.90;;;;;;5075696;28;20218;-48
2022/03/12 10:50:38;;;;;;;3.20;2.42;;;15.10;99.90;;;;;;5075960;28;20173;-48
2022/03/12 10:53:08;;;;;;;3.85;3.03;;;15.00;99.90;;;;;;5075885;28;20219;-48
2022/03/12 10:55:36;;;;;;;7.00;4.22;;;15.10;99.90;;;;;;5075672;28;20252;-49
2022/03/12 10:58:15;;;;;;;4.63;3.10;;;14.80;99.90;;;;;;5058430;28;20223;-48
2022/03/12 11:00:55;;;;;;;6.03;3.38;;;14.80;99.90;;;;;;5075684;28;20204;-48
2022/03/12 11:03:26;;;;;;;5.72;2.95;;;15.00;99.90;;;;;;5075602;28;20173;-48
2022/03/12 11:05:54;;;;;;;9.50;4.10;;;15.10;99.90;;;;;;5075182;28;20196;-48
2022/03/12 11:08:27;;;;;;;8.50;4.43;;;15.40;99.90;;;;;;5075364;28;20194;-48
2022/03/12 11:11:01;;;;;;;5.85;2.72;;;15.30;99.90;;;;;;5074884;28;20162;-48
2022/03/12 11:13:44;;;;;;;9.32;4.10;;;15.40;99.90;;;;;;5057278;28;20177;-48
2022/03/12 11:16:14;;;;;;;4.78;3.00;;;15.20;99.90;;;;;;5075425;28;20286;-48
2022/03/12 11:18:52;;;;;;;4.00;2.60;;;15.20;99.90;;;;;;5075161;28;20165;-48
2022/03/12 11:21:50;;;;;;;2.53;2.33;;;15.20;99.90;;;;;;5074905;28;20243;-48
2022/03/12 11:24:27;;;;;;;5.43;2.45;;;14.90;99.90;;;;;;5074138;28;20174;-48
2022/03/12 11:27:03;;;;;;;7.40;2.83;;;15.00;99.90;;;;;;5075032;28;20683;-48
2022/03/12 11:29:30;;;;;;;4.03;3.08;;;15.20;99.90;;;;;;5075037;28;20165;-48
2022/03/12 11:32:02;;;;;;;10.35;4.97;;;15.30;99.90;;;;;;5056998;28;20675;-48
2022/03/12 11:34:38;;;;;;;6.75;3.15;;;15.00;99.90;;;;;;5055734;28;20198;-48
2022/03/12 11:37:15;;;;;;;6.07;3.22;;;15.30;99.90;;;;;;5075328;28;20184;-48
2022/03/12 11:39:53;;;;;;;6.43;3.30;;;15.50;99.90;;;;;;5074981;28;20173;-48
2022/03/12 11:42:20;;;;;;;3.97;3.10;;;15.40;99.90;;;;;;5074728;28;20172;-48
2022/03/12 11:44:47;;;;;;;6.20;3.30;;;15.40;99.90;;;;;;5056827;28;20264;-48
2022/03/12 11:47:15;;;;;;;3.60;2.83;;;15.60;99.90;;;;;;5074320;28;20634;-48
2022/03/12 11:49:41;;;;;;;4.00;2.60;;;15.80;99.90;;;;;;5074640;28;20219;-48
2022/03/12 11:52:08;;;;;;;5.25;3.00;;;15.80;99.90;;;;;;5074554;28;20170;-48
2022/03/12 11:54:40;;;;;;;5.50;4.47;;;15.60;99.90;;;;;;5074684;28;20670;-48
2022/03/12 11:57:06;;;;;;;4.53;3.40;;;15.70;99.90;;;;;;5074285;28;20162;-48
2022/03/12 11:59:32;;;;;;;15.88;5.47;;;16.00;99.90;;;;;;5074699;28;20280;-48
2022/03/12 12:02:21;;;;;;;6.05;3.42;;;16.10;99.90;;;;;;5074413;28;20249;-48
2022/03/12 12:04:46;;;;;;;4.82;3.63;;;15.90;99.90;;;;;;5074398;28;20163;-48
2022/03/12 12:07:12;;;;;;;6.40;4.15;;;16.00;99.90;;;;;;5074361;28;20183;-48
2022/03/12 12:09:38;;;;;;;8.60;4.40;;;16.00;99.90;;;;;;5074455;28;20252;-48
2022/03/12 12:12:13;;;;;;;9.65;4.05;;;16.20;99.90;;;;;;5074670;28;20192;-48
2022/03/12 12:14:40;;;;;;;5.57;3.60;;;18.00;99.90;;;;;;5056216;28;20194;-47
2022/03/12 12:17:06;;;;;;;6.32;4.18;;;15.70;99.90;;;;;;5056495;28;20170;-47
2022/03/12 12:19:32;;;;;;;18.35;9.55;;;16.00;99.90;;;;;;5074389;28;20165;-48
2022/03/12 12:21:57;;;;;;;9.18;3.90;;;16.20;99.90;;;;;;5074033;28;20257;-47
2022/03/12 12:24:35;;;;;;;11.32;4.75;;;16.00;99.90;;;;;;5074027;28;20662;-47
2022/03/12 12:27:02;;;;;;;12.20;5.72;;;15.70;99.90;;;;;;5073888;28;20627;-48
2022/03/12 12:29:49;;;;;;;13.48;7.82;;;15.30;99.90;;;;;;5074110;28;20170;-47
2022/03/12 12:32:20;;;;;;;23.13;9.70;;;15.60;99.90;;;;;;5074096;28;20260;-47
2022/03/12 12:35:06;;;;;;;12.27;6.03;;;15.80;99.90;;;;;;5073764;28;20186;-47
2022/03/12 12:37:59;;;;;;;6.28;4.10;;;15.80;99.90;;;;;;5074153;28;20193;-47
2022/03/12 12:40:36;;;;;;;6.85;4.22;;;15.70;99.90;;;;;;5073893;28;20239;-47
2022/03/12 12:43:09;;;;;;;10.60;5.07;;;15.80;99.90;;;;;;5074184;28;20257;-47
2022/03/12 12:45:52;;;;;;;17.55;6.72;;;15.70;99.90;;;;;;5073755;28;20166;-47
2022/03/12 12:48:26;;;;;;;7.60;4.22;;;15.80;99.90;;;;;;5073509;28;20181;-47
2022/03/12 12:51:11;;;;;;;7.70;3.95;;;15.90;99.90;;;;;;5055519;28;20185;-47
2022/03/12 12:53:39;;;;;;;5.95;3.55;;;15.90;99.90;;;;;;5073664;28;20165;-48